Paris, France

10:11 CEST le 01 octobre 2014 (GMT +0200)
Charles de Gaulle | Change Station
CLOSE
Current Station
Aéroport
Location: Paris / Charles De Gaulle,
Altitude: 367 ft
Stations météo à proximité

Alt. 367 ft 49.02 °N, 2.53 °E | Updated 11 minutes ago

Patches of Fog
Bancs de brouillard
61 ° F
Paraît 61 ° F
N
0
Vent Variable Vent de Nord

Aujourd'hui
Haut(e) -- | Bas -- ° F
--% Risque de précip.
Hier
Haut(e) -- | Bas -- ° F
Precip. -- pouce
7:49 AM 7:29 PM
Lune montante, 45% visible
Pression 30.33 pouce
Visibilité 3.7 Miles terrestres
Nuages Peu 100 ft
Point de rosée 59 ° F
Humidité 94%
Précipitations 0.00 pouce
Profondeur de la couche neigeuse Non disponible.
UV 1 sur 12
Pollen Non disponible.
Qualité de l'air Non disponible.
Flu Activity Non disponible.
METAR LFPG 010800Z 00000KT 6000 0900SE R27L/P2000 R09R/P2000 R26R/P2000 R08L/P2000 R26L/0900U R08R/P2000 R27R/P2000 R09L/P2000 BCFG FEW001 16/15 Q1027 NOSIG

More Conditions Fewer Conditions

Pression 30.33 pouce
Visibilité 3.7 Miles terrestres
Nuages Peu 100 ft
Point de rosée 59 ° F
Humidité 94%
Précipitations 0.00 pouce
Profondeur de la couche neigeuse Non disponible.
UV 1 sur 12
Pollen Non disponible.
Qualité de l'air Non disponible.
Flu Activity Non disponible.
METAR LFPG 010800Z 00000KT 6000 0900SE R27L/P2000 R09R/P2000 R26R/P2000 R08L/P2000 R26L/0900U R08R/P2000 R27R/P2000 R09L/P2000 BCFG FEW001 16/15 Q1027 NOSIG

More Conditions Fewer Conditions

10-Day Weather Forecast

Almanac

Astronomie

Oct. 01, 2014 Lever Coucher
Temps réel 07:49 CEST 19:29 CEST
Crépuscule civil 07:17 CEST 20:00 CEST
Crépuscule nautique 06:40 CEST 20:37 CEST
Crépuscule astronomique 06:03 CEST 21:14 CEST
Lune 14:59 CEST Pas de coucher de lune
Durée de lumière visible 12h 43m
Longueur du jour
11h 39m
Tomorrow will be 3m 34s shorter.
Lune montante, 45% of the Moon is Illuminated
Aujourd'hui
Lune montante
Oct 1
Premier quartier
Oct 8
Pleine lune
Oct 15
Dernier quartier
Oct 23
Nouveau

Les extrêmes de température d’hier

Country Highs Country Lows

Community

WunderPhotos

Upload Photos

1,757,902 Photos téléchargées !

Nearby

Qualité de l'air

Not available.

Épaisseur de neige

Not available.

Activité sismique

Ville Distance Mag. Time & Date
No recent earthquake activity has been reported nearby.
Minimum magnitude displayed is 2.5.

Températures des eaux côtières

Lieu Température
Aucun rapport de station

Stations météo à proximité